BXTK1: Spring River at Baxter Springs

                                SHEF ID:       BXTK1     SPRING R NR BAXTER SPRINGS, KS
STATION TYPE:

PRECIP STAGE RIV-FLOW BAT-LOAD
in ft cfs volt
Ccp-Rev Ccp-Rev Ccp-Rev Ccp-Rev
(America/Chicago)
04/29 00:00 0.00 7.10 12336 12.35
04/29 01:00 0.00 7.23 12701 12.34
04/29 02:00 0.00 7.28 12842 12.31
04/29 03:00 0.00 7.28 12842 12.28
04/29 04:00 0.00 7.22 12673 12.25
04/29 05:00 0.00 7.12 12392 12.19
04/29 06:00 0.00 7.02 12096 12.14
04/29 07:00 0.00 6.90 11530 12.11
04/29 08:00 0.00 6.80 11051 12.70
04/29 09:00 0.00 6.69 10535 13.24
04/29 10:00 0.00 6.59 10077 14.05
04/29 11:00 0.00 6.50 9673 14.07
04/29 12:00 0.00 6.42 9321 14.15
04/29 13:00 0.00 6.34 8975 14.09
04/29 14:00 0.00 6.26 8635 13.99
04/29 15:00 0.00 6.18 8302 13.81
04/29 16:00 0.00 6.11 8015 13.78
04/29 17:00 0.00 6.04 7734 13.80
04/29 18:00 0.00 5.97 7457 13.65
04/29 19:00 0.00 5.89 7147 13.24
04/29 20:00 0.00 5.83 6918 12.53
04/29 21:00 0.00 5.77 6693 12.43
04/29 22:00 0.00 5.71 6472 12.41
04/29 23:00 ---- ---- ---- ----
Data processed at Thu 30Apr2026 04:42 GMT

NOTICE: If you are parsing this page

Please convert to using our Data API. Starting early 2026 we will be migrating to: https://water.usace.army.mil with modern pages rendered in JavaScript. When this migration completes you will no longer be able to scrape this page! CWMSDataAPI (CDA)

Timeseries IDs (TSIDs)

TSIDs used from left to right in the data table
BAXT.Precip-Inc.Total.1Hour.1Hour.Ccp-Rev
BAXT.Stage.Inst.1Hour.0.Ccp-Rev
BAXT.Flow.Inst.1Hour.0.Ccp-Rev
BAXT.Volt-Battery Load.Inst.1Hour.0.Ccp-Rev

                            

All information presented herein is the property of the government of the United States of America and may be revised or deleted at any time without prior notice. Dissemination of this information without the expressed written consent of the Public Affairs Office, Tulsa District U.S. Army Corps of Engineers is strictly prohibited. These data are gathered electronically and, as presented, have NOT undergone any form of quality control. These data are NOT guaranteed to be valid or correct.